Papere Vagabonde

Aviosuperficie Caposile LIKI

Pista 04


Pista 22

Le immagini vengono aggiornate ogni minuto
Cliccare sull'immagine per l'ingrandimento.

METAR LIPZ

LIPZ 141250Z 17007KT 150V210 CAVOK 24/15 Q1018 NOSIG

TAF LIPZ 141100Z 1412/1518 14012KT CAVOK
  BECMG 1420/1422 VRB05KT


weather station active


      


Alba: 05:24
Tramonto: 20:56